sensor_id;sensor_type;location;lat;lon;timestamp;pressure;altitude;pressure_sealevel;temperature;humidity
7662;BME280;30314;48.184;11.510;2023-04-15T00:00:57;94882.22;;;4.44;100.00
7662;BME280;30314;48.184;11.510;2023-04-15T00:03:24;94882.75;;;4.41;100.00
7662;BME280;30314;48.184;11.510;2023-04-15T00:05:51;94877.75;;;4.45;100.00
7662;BME280;30314;48.184;11.510;2023-04-15T00:08:18;94872.84;;;4.38;100.00
7662;BME280;30314;48.184;11.510;2023-04-15T00:10:45;94873.09;;;4.42;100.00
7662;BME280;30314;48.184;11.510;2023-04-15T00:13:12;94871.25;;;4.42;100.00
7662;BME280;30314;48.184;11.510;2023-04-15T00:15:38;94875.16;;;4.45;100.00
7662;BME280;30314;48.184;11.510;2023-04-15T00:18:05;94870.47;;;4.42;100.00
7662;BME280;30314;48.184;11.510;2023-04-15T00:20:34;94881.44;;;4.44;100.00
7662;BME280;30314;48.184;11.510;2023-04-15T00:23:01;94878.81;;;4.49;100.00
7662;BME280;30314;48.184;11.510;2023-04-15T00:25:29;94862.88;;;4.45;100.00
7662;BME280;30314;48.184;11.510;2023-04-15T00:27:55;94864.94;;;4.48;100.00
7662;BME280;30314;48.184;11.510;2023-04-15T00:30:22;94859.66;;;4.54;100.00
7662;BME280;30314;48.184;11.510;2023-04-15T00:32:49;94857.09;;;4.48;100.00
7662;BME280;30314;48.184;11.510;2023-04-15T00:35:19;94859.66;;;4.54;100.00
7662;BME280;30314;48.184;11.510;2023-04-15T00:37:48;94850.03;;;4.49;100.00
7662;BME280;30314;48.184;11.510;2023-04-15T00:40:18;94859.16;;;4.57;100.00
7662;BME280;30314;48.184;11.510;2023-04-15T00:42:46;94853.91;;;4.57;100.00
7662;BME280;30314;48.184;11.510;2023-04-15T00:45:13;94851.31;;;4.51;100.00
7662;BME280;30314;48.184;11.510;2023-04-15T00:47:43;94839.84;;;4.47;100.00
7662;BME280;30314;48.184;11.510;2023-04-15T00:50:10;94848.16;;;4.55;100.00
7662;BME280;30314;48.184;11.510;2023-04-15T00:52:39;94841.91;;;4.56;100.00
7662;BME280;30314;48.184;11.510;2023-04-15T00:55:06;94854.69;;;4.57;100.00
7662;BME280;30314;48.184;11.510;2023-04-15T00:57:34;94847.13;;;4.56;100.00
7662;BME280;30314;48.184;11.510;2023-04-15T01:00:00;94850.63;;;4.75;100.00
7662;BME280;30314;48.184;11.510;2023-04-15T01:02:28;94836.38;;;4.62;100.00
7662;BME280;30314;48.184;11.510;2023-04-15T01:04:55;94837.91;;;4.63;100.00
7662;BME280;30314;48.184;11.510;2023-04-15T01:07:22;94848.69;;;4.57;100.00
7662;BME280;30314;48.184;11.510;2023-04-15T01:09:48;94832.50;;;4.49;100.00
7662;BME280;30314;48.184;11.510;2023-04-15T01:12:16;94851.06;;;4.53;100.00
7662;BME280;30314;48.184;11.510;2023-04-15T01:14:42;94847.19;;;4.45;100.00
7662;BME280;30314;48.184;11.510;2023-04-15T01:17:09;94849.19;;;4.59;100.00
7662;BME280;30314;48.184;11.510;2023-04-15T01:19:36;94836.41;;;4.52;100.00
7662;BME280;30314;48.184;11.510;2023-04-15T01:22:02;94849.75;;;4.50;100.00
7662;BME280;30314;48.184;11.510;2023-04-15T01:24:30;94845.22;;;4.61;100.00
7662;BME280;30314;48.184;11.510;2023-04-15T01:26:57;94847.66;;;4.53;100.00
7662;BME280;30314;48.184;11.510;2023-04-15T01:29:23;94837.19;;;4.53;100.00
7662;BME280;30314;48.184;11.510;2023-04-15T01:31:51;94843.97;;;4.54;100.00
7662;BME280;30314;48.184;11.510;2023-04-15T01:34:18;94850.50;;;4.56;100.00
7662;BME280;30314;48.184;11.510;2023-04-15T01:36:45;94840.41;;;4.44;100.00
7662;BME280;30314;48.184;11.510;2023-04-15T01:39:12;94843.28;;;4.43;100.00
7662;BME280;30314;48.184;11.510;2023-04-15T01:41:39;94847.19;;;4.45;100.00
7662;BME280;30314;48.184;11.510;2023-04-15T01:44:07;94842.50;;;4.42;100.00
7662;BME280;30314;48.184;11.510;2023-04-15T01:46:34;94846.13;;;4.41;100.00
7662;BME280;30314;48.184;11.510;2023-04-15T01:49:00;94850.59;;;4.41;100.00
7662;BME280;30314;48.184;11.510;2023-04-15T01:51:27;94852.41;;;4.45;100.00
7662;BME280;30314;48.184;11.510;2023-04-15T01:53:54;94841.97;;;4.40;100.00
7662;BME280;30314;48.184;11.510;2023-04-15T01:56:23;94849.84;;;4.35;100.00
7662;BME280;30314;48.184;11.510;2023-04-15T01:58:51;94846.72;;;4.33;100.00
7662;BME280;30314;48.184;11.510;2023-04-15T02:01:17;94812.91;;;4.07;100.00
7662;BME280;30314;48.184;11.510;2023-04-15T02:03:47;94856.38;;;4.38;100.00
7662;BME280;30314;48.184;11.510;2023-04-15T02:06:14;94844.88;;;4.33;100.00
7662;BME280;30314;48.184;11.510;2023-04-15T02:08:41;94854.81;;;4.36;100.00
7662;BME280;30314;48.184;11.510;2023-04-15T02:11:07;94850.34;;;4.37;100.00
7662;BME280;30314;48.184;11.510;2023-04-15T02:13:34;94851.38;;;4.41;100.00
7662;BME280;30314;48.184;11.510;2023-04-15T02:16:02;94859.66;;;4.54;100.00
7662;BME280;30314;48.184;11.510;2023-04-15T02:18:28;94850.31;;;4.47;100.00
7662;BME280;30314;48.184;11.510;2023-04-15T02:20:55;94848.44;;;4.53;100.00
7662;BME280;30314;48.184;11.510;2023-04-15T02:23:24;94865.16;;;4.57;100.00
7662;BME280;30314;48.184;11.510;2023-04-15T02:25:50;94849.25;;;4.48;100.00
7662;BME280;30314;48.184;11.510;2023-04-15T02:28:20;94842.47;;;4.47;100.00
7662;BME280;30314;48.184;11.510;2023-04-15T02:30:50;94846.63;;;4.48;100.00
7662;BME280;30314;48.184;11.510;2023-04-15T02:33:18;94852.88;;;4.53;100.00
7662;BME280;30314;48.184;11.510;2023-04-15T02:35:45;94846.63;;;4.48;100.00
7662;BME280;30314;48.184;11.510;2023-04-15T02:38:12;94849.22;;;4.54;100.00
7662;BME280;30314;48.184;11.510;2023-04-15T02:40:40;94847.63;;;4.58;100.00
7662;BME280;30314;48.184;11.510;2023-04-15T02:43:06;94847.13;;;4.56;100.00
7662;BME280;30314;48.184;11.510;2023-04-15T02:45:34;94842.72;;;4.46;100.00
7662;BME280;30314;48.184;11.510;2023-04-15T02:48:02;94842.53;;;4.37;100.00
7662;BME280;30314;48.184;11.510;2023-04-15T02:50:32;94848.47;;;4.48;100.00
7662;BME280;30314;48.184;11.510;2023-04-15T02:52:59;94852.88;;;4.53;100.00
7662;BME280;30314;48.184;11.510;2023-04-15T02:55:28;94844.59;;;4.40;100.00
7662;BME280;30314;48.184;11.510;2023-04-15T02:57:54;94844.03;;;4.48;100.00
7662;BME280;30314;48.184;11.510;2023-04-15T03:00:21;94835.16;;;4.44;100.00
7662;BME280;30314;48.184;11.510;2023-04-15T03:02:50;94844.81;;;4.49;100.00
7662;BME280;30314;48.184;11.510;2023-04-15T03:05:22;94844.53;;;4.50;100.00
7662;BME280;30314;48.184;11.510;2023-04-15T03:07:51;94850.31;;;4.47;100.00
7662;BME280;30314;48.184;11.510;2023-04-15T03:10:19;94837.03;;;4.33;100.00
7662;BME280;30314;48.184;11.510;2023-04-15T03:12:46;94835.69;;;4.41;100.00
7662;BME280;30314;48.184;11.510;2023-04-15T03:15:16;94840.41;;;4.39;100.00
7662;BME280;30314;48.184;11.510;2023-04-15T03:17:47;94846.38;;;4.45;100.00
7662;BME280;30314;48.184;11.510;2023-04-15T03:20:15;94850.00;;;4.54;100.00
7662;BME280;30314;48.184;11.510;2023-04-15T03:22:42;94841.41;;;4.48;100.00
7662;BME280;30314;48.184;11.510;2023-04-15T03:25:08;94858.19;;;4.42;100.00
7662;BME280;30314;48.184;11.510;2023-04-15T03:27:37;94863.13;;;4.49;100.00
7662;BME280;30314;48.184;11.510;2023-04-15T03:30:05;94857.09;;;4.48;100.00
7662;BME280;30314;48.184;11.510;2023-04-15T03:32:34;94859.50;;;4.40;100.00
7662;BME280;30314;48.184;11.510;2023-04-15T03:35:01;94864.47;;;4.36;100.00
7662;BME280;30314;48.184;11.510;2023-04-15T03:37:27;94866.03;;;4.37;100.00
7662;BME280;30314;48.184;11.510;2023-04-15T03:39:54;94850.66;;;4.30;100.00
7662;BME280;30314;48.184;11.510;2023-04-15T03:42:20;94858.25;;;4.27;100.00
7662;BME280;30314;48.184;11.510;2023-04-15T03:44:47;94857.75;;;4.25;100.00
7662;BME280;30314;48.184;11.510;2023-04-15T03:47:13;94858.78;;;4.23;100.00
7662;BME280;30314;48.184;11.510;2023-04-15T03:49:40;94858.06;;;4.13;100.00
7662;BME280;30314;48.184;11.510;2023-04-15T03:52:06;94849.97;;;4.09;100.00
7662;BME280;30314;48.184;11.510;2023-04-15T03:54:33;94863.81;;;4.15;100.00
7662;BME280;30314;48.184;11.510;2023-04-15T03:56:59;94857.06;;;4.03;100.00
7662;BME280;30314;48.184;11.510;2023-04-15T03:59:26;94874.81;;;4.12;100.00
7662;BME280;30314;48.184;11.510;2023-04-15T04:01:53;94854.19;;;4.05;100.00
7662;BME280;30314;48.184;11.510;2023-04-15T04:04:19;94858.38;;;4.06;100.00
7662;BME280;30314;48.184;11.510;2023-04-15T04:06:46;94866.16;;;4.16;100.00
7662;BME280;30314;48.184;11.510;2023-04-15T04:09:12;94868.53;;;4.13;100.00
7662;BME280;30314;48.184;11.510;2023-04-15T04:11:39;94872.88;;;4.28;100.00
7662;BME280;30314;48.184;11.510;2023-04-15T04:14:05;94867.22;;;4.15;100.00
7662;BME280;30314;48.184;11.510;2023-04-15T04:16:32;94868.53;;;4.07;100.00
7662;BME280;30314;48.184;11.510;2023-04-15T04:18:58;94860.97;;;4.06;100.00
7662;BME280;30314;48.184;11.510;2023-04-15T04:21:25;94870.88;;;4.09;100.00
7662;BME280;30314;48.184;11.510;2023-04-15T04:23:52;94869.59;;;4.06;100.00
7662;BME280;30314;48.184;11.510;2023-04-15T04:26:19;94865.66;;;4.09;100.00
7662;BME280;30314;48.184;11.510;2023-04-15T04:28:45;94854.19;;;4.00;100.00
7662;BME280;30314;48.184;11.510;2023-04-15T04:31:12;94868.78;;;4.11;100.00
7662;BME280;30314;48.184;11.510;2023-04-15T04:33:39;94872.44;;;4.10;100.00
7662;BME280;30314;48.184;11.510;2023-04-15T04:36:05;94856.50;;;4.06;100.00
7662;BME280;30314;48.184;11.510;2023-04-15T04:38:32;94866.16;;;4.11;100.00
7662;BME280;30314;48.184;11.510;2023-04-15T04:40:59;94866.16;;;4.16;100.00
7662;BME280;30314;48.184;11.510;2023-04-15T04:43:25;94858.84;;;4.13;100.00
7662;BME280;30314;48.184;11.510;2023-04-15T04:45:52;94874.97;;;4.26;100.00
7662;BME280;30314;48.184;11.510;2023-04-15T04:48:19;94872.41;;;4.20;100.00
7662;BME280;30314;48.184;11.510;2023-04-15T04:50:45;94880.25;;;4.20;100.00
7662;BME280;30314;48.184;11.510;2023-04-15T04:53:12;94873.25;;;4.11;100.00
7662;BME280;30314;48.184;11.510;2023-04-15T04:55:38;94876.13;;;4.09;100.00
7662;BME280;30314;48.184;11.510;2023-04-15T04:58:05;94871.91;;;4.13;100.00
7662;BME280;30314;48.184;11.510;2023-04-15T05:00:32;94875.81;;;4.16;100.00
7662;BME280;30314;48.184;11.510;2023-04-15T05:02:59;94878.69;;;4.19;100.00
7662;BME280;30314;48.184;11.510;2023-04-15T05:05:26;94868.78;;;4.11;100.00
7662;BME280;30314;48.184;11.510;2023-04-15T05:07:52;94861.69;;;4.17;100.00
7662;BME280;30314;48.184;11.510;2023-04-15T05:10:19;94866.09;;;4.27;100.00
7662;BME280;30314;48.184;11.510;2023-04-15T05:12:45;94849.72;;;4.11;100.00
7662;BME280;30314;48.184;11.510;2023-04-15T05:15:12;94857.28;;;4.17;100.00
7662;BME280;30314;48.184;11.510;2023-04-15T05:17:38;94866.63;;;4.23;100.00
7662;BME280;30314;48.184;11.510;2023-04-15T05:20:06;94870.06;;;4.19;100.00
7662;BME280;30314;48.184;11.510;2023-04-15T05:22:32;94856.72;;;4.20;100.00
7662;BME280;30314;48.184;11.510;2023-04-15T05:24:59;94867.44;;;4.24;100.00
7662;BME280;30314;48.184;11.510;2023-04-15T05:27:26;94863.50;;;4.21;100.00
7662;BME280;30314;48.184;11.510;2023-04-15T05:29:52;94882.56;;;4.27;100.00
7662;BME280;30314;48.184;11.510;2023-04-15T05:32:19;94864.31;;;4.22;100.00
7662;BME280;30314;48.184;11.510;2023-04-15T05:34:46;94873.94;;;4.27;100.00
7662;BME280;30314;48.184;11.510;2023-04-15T05:37:12;94881.47;;;4.39;100.00
7662;BME280;30314;48.184;11.510;2023-04-15T05:39:39;94873.94;;;4.32;100.00
7662;BME280;30314;48.184;11.510;2023-04-15T05:42:05;94872.59;;;4.34;100.00
7662;BME280;30314;48.184;11.510;2023-04-15T05:44:32;94880.97;;;4.36;100.00
7662;BME280;30314;48.184;11.510;2023-04-15T05:46:59;94865.53;;;4.35;100.00
7662;BME280;30314;48.184;11.510;2023-04-15T05:49:28;94878.81;;;4.44;100.00
7662;BME280;30314;48.184;11.510;2023-04-15T05:51:55;94872.03;;;4.43;100.00
7662;BME280;30314;48.184;11.510;2023-04-15T05:54:21;94877.72;;;4.55;100.00
7662;BME280;30314;48.184;11.510;2023-04-15T05:56:48;94876.19;;;4.49;100.00
7662;BME280;30314;48.184;11.510;2023-04-15T05:59:15;94863.13;;;4.44;100.00
7662;BME280;30314;48.184;11.510;2023-04-15T06:01:41;94867.28;;;4.50;100.00
7662;BME280;30314;48.184;11.510;2023-04-15T06:04:08;94855.53;;;4.47;100.00
7662;BME280;30314;48.184;11.510;2023-04-15T06:06:35;94867.00;;;4.51;100.00
7662;BME280;30314;48.184;11.510;2023-04-15T06:09:01;94879.03;;;4.53;100.00
7662;BME280;30314;48.184;11.510;2023-04-15T06:11:28;94867.06;;;4.41;100.00
7662;BME280;30314;48.184;11.510;2023-04-15T06:13:55;94881.13;;;4.50;100.00
7662;BME280;30314;48.184;11.510;2023-04-15T06:16:21;94871.78;;;4.44;100.00
7662;BME280;30314;48.184;11.510;2023-04-15T06:18:48;94857.41;;;4.42;100.00
7662;BME280;30314;48.184;11.510;2023-04-15T06:21:15;94875.66;;;4.52;100.00
7662;BME280;30314;48.184;11.510;2023-04-15T06:23:41;94882.63;;;4.62;100.00
7662;BME280;30314;48.184;11.510;2023-04-15T06:26:08;94881.59;;;4.63;100.00
7662;BME280;30314;48.184;11.510;2023-04-15T06:28:34;94862.31;;;4.48;100.00
7662;BME280;30314;48.184;11.510;2023-04-15T06:31:01;94884.94;;;4.69;100.00
7662;BME280;30314;48.184;11.510;2023-04-15T06:33:28;94886.28;;;4.66;100.00
7662;BME280;30314;48.184;11.510;2023-04-15T06:35:54;94881.78;;;4.72;100.00
7662;BME280;30314;48.184;11.510;2023-04-15T06:38:21;94888.81;;;4.82;100.00
7662;BME280;30314;48.184;11.510;2023-04-15T06:40:47;94867.91;;;4.76;100.00
7662;BME280;30314;48.184;11.510;2023-04-15T06:43:14;94886.66;;;4.89;100.00
7662;BME280;30314;48.184;11.510;2023-04-15T06:45:40;94891.88;;;4.89;100.00
7662;BME280;30314;48.184;11.510;2023-04-15T06:48:07;94876.75;;;4.81;100.00
7662;BME280;30314;48.184;11.510;2023-04-15T06:50:34;94881.09;;;4.96;100.00
7662;BME280;30314;48.184;11.510;2023-04-15T06:53:01;94891.94;;;5.13;100.00
7662;BME280;30314;48.184;11.510;2023-04-15T06:55:28;94895.69;;;5.07;100.00
7662;BME280;30314;48.184;11.510;2023-04-15T06:57:55;94896.97;;;5.10;100.00
7662;BME280;30314;48.184;11.510;2023-04-15T07:00:21;94896.44;;;5.07;100.00
7662;BME280;30314;48.184;11.510;2023-04-15T07:02:48;94887.00;;;5.12;100.00
7662;BME280;30314;48.184;11.510;2023-04-15T07:05:14;94892.19;;;5.17;100.00
7662;BME280;30314;48.184;11.510;2023-04-15T07:07:41;94883.56;;;5.16;100.00
7662;BME280;30314;48.184;11.510;2023-04-15T07:10:08;94893.19;;;5.26;100.00
7662;BME280;30314;48.184;11.510;2023-04-15T07:12:35;94898.84;;;5.39;100.00
7662;BME280;30314;48.184;11.510;2023-04-15T07:15:02;94866.69;;;5.28;100.00
7662;BME280;30314;48.184;11.510;2023-04-15T07:17:28;94899.03;;;5.72;100.00
7662;BME280;30314;48.184;11.510;2023-04-15T07:19:55;94894.19;;;5.84;100.00
7662;BME280;30314;48.184;11.510;2023-04-15T07:22:22;94890.91;;;5.98;100.00
7662;BME280;30314;48.184;11.510;2023-04-15T07:24:48;94904.53;;;6.19;100.00
7662;BME280;30314;48.184;11.510;2023-04-15T07:27:15;94893.47;;;6.46;100.00
7662;BME280;30314;48.184;11.510;2023-04-15T07:29:41;94891.63;;;6.66;100.00
7662;BME280;30314;48.184;11.510;2023-04-15T07:32:08;94885.38;;;6.62;100.00
7662;BME280;30314;48.184;11.510;2023-04-15T07:34:36;94905.25;;;6.68;100.00
7662;BME280;30314;48.184;11.510;2023-04-15T07:37:03;94896.84;;;6.47;100.00
7662;BME280;30314;48.184;11.510;2023-04-15T07:39:29;94900.84;;;6.44;100.00
7662;BME280;30314;48.184;11.510;2023-04-15T07:41:56;94913.47;;;6.42;100.00
7662;BME280;30314;48.184;11.510;2023-04-15T07:44:25;94914.81;;;6.59;100.00
7662;BME280;30314;48.184;11.510;2023-04-15T07:46:52;94916.19;;;6.75;100.00
7662;BME280;30314;48.184;11.510;2023-04-15T07:49:19;94897.59;;;6.91;100.00
7662;BME280;30314;48.184;11.510;2023-04-15T07:51:47;94914.47;;;7.23;100.00
7662;BME280;30314;48.184;11.510;2023-04-15T07:54:14;94901.28;;;7.42;100.00
7662;BME280;30314;48.184;11.510;2023-04-15T07:56:41;94902.16;;;7.38;100.00
7662;BME280;30314;48.184;11.510;2023-04-15T07:59:08;94902.25;;;7.46;100.00
7662;BME280;30314;48.184;11.510;2023-04-15T08:01:35;94908.94;;;7.86;100.00
7662;BME280;30314;48.184;11.510;2023-04-15T08:04:02;94882.94;;;7.70;100.00
7662;BME280;30314;48.184;11.510;2023-04-15T08:06:29;94899.72;;;7.88;100.00
7662;BME280;30314;48.184;11.510;2023-04-15T08:08:56;94901.34;;;7.84;100.00
7662;BME280;30314;48.184;11.510;2023-04-15T08:11:22;94892.66;;;7.70;100.00
7662;BME280;30314;48.184;11.510;2023-04-15T08:13:51;94896.06;;;7.84;100.00
7662;BME280;30314;48.184;11.510;2023-04-15T08:18:47;94890.66;;;7.81;100.00
7662;BME280;30314;48.184;11.510;2023-04-15T08:21:15;94894.34;;;7.94;100.00
7662;BME280;30314;48.184;11.510;2023-04-15T08:23:42;94898.22;;;7.82;100.00
7662;BME280;30314;48.184;11.510;2023-04-15T08:26:09;94886.16;;;7.81;100.00
7662;BME280;30314;48.184;11.510;2023-04-15T08:28:38;94884.59;;;7.80;100.00
7662;BME280;30314;48.184;11.510;2023-04-15T08:31:05;94895.53;;;7.87;99.36
7662;BME280;30314;48.184;11.510;2023-04-15T08:33:31;94877.47;;;7.67;100.00
7662;BME280;30314;48.184;11.510;2023-04-15T08:35:58;94881.84;;;7.57;100.00
7662;BME280;30314;48.184;11.510;2023-04-15T08:38:24;94878.44;;;7.57;100.00
7662;BME280;30314;48.184;11.510;2023-04-15T08:40:51;94884.88;;;7.65;100.00
7662;BME280;30314;48.184;11.510;2023-04-15T08:43:20;94890.25;;;7.73;100.00
7662;BME280;30314;48.184;11.510;2023-04-15T08:45:52;94886.34;;;7.71;100.00
7662;BME280;30314;48.184;11.510;2023-04-15T08:48:19;94879.91;;;7.63;100.00
7662;BME280;30314;48.184;11.510;2023-04-15T08:50:47;94888.84;;;7.48;100.00
7662;BME280;30314;48.184;11.510;2023-04-15T08:53:14;94898.34;;;7.44;100.00
7662;BME280;30314;48.184;11.510;2023-04-15T08:55:42;94903.06;;;7.47;100.00
7662;BME280;30314;48.184;11.510;2023-04-15T08:58:13;94890.78;;;7.42;100.00
7662;BME280;30314;48.184;11.510;2023-04-15T09:00:41;94888.91;;;7.43;100.00
7662;BME280;30314;48.184;11.510;2023-04-15T09:03:08;94897.72;;;7.52;100.00
7662;BME280;30314;48.184;11.510;2023-04-15T09:05:35;94907.03;;;7.58;100.00
7662;BME280;30314;48.184;11.510;2023-04-15T09:08:03;94909.69;;;7.58;100.00
7662;BME280;30314;48.184;11.510;2023-04-15T09:10:32;94911.22;;;7.59;100.00
7662;BME280;30314;48.184;11.510;2023-04-15T09:12:59;94904.03;;;7.51;100.00
7662;BME280;30314;48.184;11.510;2023-04-15T09:15:27;94917.56;;;7.58;100.00
7662;BME280;30314;48.184;11.510;2023-04-15T09:17:55;94910.19;;;7.60;100.00
7662;BME280;30314;48.184;11.510;2023-04-15T09:20:22;94904.72;;;7.57;100.00
7662;BME280;30314;48.184;11.510;2023-04-15T09:22:49;94906.22;;;7.77;100.00
7662;BME280;30314;48.184;11.510;2023-04-15T09:27:52;94919.63;;;7.75;100.00
7662;BME280;30314;48.184;11.510;2023-04-15T09:30:19;94928.09;;;7.72;100.00
7662;BME280;30314;48.184;11.510;2023-04-15T09:32:49;94930.34;;;7.93;100.00
7662;BME280;30314;48.184;11.510;2023-04-15T09:35:17;94925.31;;;7.97;100.00
7662;BME280;30314;48.184;11.510;2023-04-15T09:37:44;94922.13;;;8.00;100.00
7662;BME280;30314;48.184;11.510;2023-04-15T09:40:11;94916.84;;;7.86;100.00
7662;BME280;30314;48.184;11.510;2023-04-15T09:42:54;94926.47;;;8.04;100.00
7662;BME280;30314;48.184;11.510;2023-04-15T09:45:22;94924.44;;;8.01;100.00
7662;BME280;30314;48.184;11.510;2023-04-15T09:47:51;94929.41;;;8.03;100.00
7662;BME280;30314;48.184;11.510;2023-04-15T09:50:18;94920.25;;;8.00;100.00
7662;BME280;30314;48.184;11.510;2023-04-15T09:52:46;94932.72;;;8.09;100.00
7662;BME280;30314;48.184;11.510;2023-04-15T09:55:13;94926.47;;;7.91;100.00
7662;BME280;30314;48.184;11.510;2023-04-15T09:57:41;94939.13;;;7.88;100.00
7662;BME280;30314;48.184;11.510;2023-04-15T10:00:09;94926.28;;;7.87;100.00
7662;BME280;30314;48.184;11.510;2023-04-15T10:02:38;94933.88;;;7.88;100.00
7662;BME280;30314;48.184;11.510;2023-04-15T10:05:05;94930.47;;;8.02;100.00
7662;BME280;30314;48.184;11.510;2023-04-15T10:07:33;94934.88;;;8.07;100.00
7662;BME280;30314;48.184;11.510;2023-04-15T10:10:00;94924.13;;;7.89;100.00
7662;BME280;30314;48.184;11.510;2023-04-15T10:12:28;94924.81;;;7.95;100.00
7662;BME280;30314;48.184;11.510;2023-04-15T10:14:59;94936.59;;;8.11;100.00
7662;BME280;30314;48.184;11.510;2023-04-15T10:17:31;94925.50;;;8.00;100.00
7662;BME280;30314;48.184;11.510;2023-04-15T10:20:03;94917.50;;;8.06;99.83
7662;BME280;30314;48.184;11.510;2023-04-15T10:22:31;94938.38;;;8.02;100.00
7662;BME280;30314;48.184;11.510;2023-04-15T10:24:58;94936.13;;;8.09;100.00
7662;BME280;30314;48.184;11.510;2023-04-15T10:27:28;94945.66;;;8.19;100.00
7662;BME280;30314;48.184;11.510;2023-04-15T10:29:56;94939.53;;;8.10;100.00
7662;BME280;30314;48.184;11.510;2023-04-15T10:32:23;94941.47;;;8.04;100.00
7662;BME280;30314;48.184;11.510;2023-04-15T10:34:51;94946.47;;;8.34;94.94
7662;BME280;30314;48.184;11.510;2023-04-15T10:37:40;94949.28;;;8.23;100.00
7662;BME280;30314;48.184;11.510;2023-04-15T10:40:23;94943.31;;;8.45;96.35
7662;BME280;30314;48.184;11.510;2023-04-15T10:42:53;94941.84;;;8.39;93.83
7662;BME280;30314;48.184;11.510;2023-04-15T10:45:19;94939.44;;;8.29;97.28
7662;BME280;30314;48.184;11.510;2023-04-15T10:47:51;94943.22;;;8.23;100.00
7662;BME280;30314;48.184;11.510;2023-04-15T10:50:18;94944.03;;;8.23;98.66
7662;BME280;30314;48.184;11.510;2023-04-15T10:52:45;94951.44;;;8.21;100.00
7662;BME280;30314;48.184;11.510;2023-04-15T10:55:21;94935.81;;;8.25;100.00
7662;BME280;30314;48.184;11.510;2023-04-15T10:57:57;94954.75;;;8.27;100.00
7662;BME280;30314;48.184;11.510;2023-04-15T11:00:25;94958.44;;;8.54;100.00
7662;BME280;30314;48.184;11.510;2023-04-15T11:02:57;94963.50;;;8.50;100.00
7662;BME280;30314;48.184;11.510;2023-04-15T11:08:15;94949.84;;;8.34;100.00
7662;BME280;30314;48.184;11.510;2023-04-15T11:15:46;94943.03;;;8.47;99.95
7662;BME280;30314;48.184;11.510;2023-04-15T11:18:24;94957.75;;;8.34;98.51
7662;BME280;30314;48.184;11.510;2023-04-15T11:20:59;94953.44;;;8.38;95.28
7662;BME280;30314;48.184;11.510;2023-04-15T11:25:58;94924.06;;;7.94;100.00
7662;BME280;30314;48.184;11.510;2023-04-15T11:28:27;94969.34;;;8.05;100.00
7662;BME280;30314;48.184;11.510;2023-04-15T11:30:54;94960.84;;;7.94;100.00
7662;BME280;30314;48.184;11.510;2023-04-15T11:33:22;94965.06;;;7.95;100.00
7662;BME280;30314;48.184;11.510;2023-04-15T11:35:50;94967.75;;;7.90;100.00
7662;BME280;30314;48.184;11.510;2023-04-15T11:38:18;94942.09;;;7.68;100.00
7662;BME280;30314;48.184;11.510;2023-04-15T11:40:44;94953.81;;;7.75;100.00
7662;BME280;30314;48.184;11.510;2023-04-15T11:43:13;94970.28;;;7.81;100.00
7662;BME280;30314;48.184;11.510;2023-04-15T11:46:00;94969.13;;;7.87;100.00
7662;BME280;30314;48.184;11.510;2023-04-15T11:48:33;94949.41;;;7.71;100.00
7662;BME280;30314;48.184;11.510;2023-04-15T11:51:01;94969.28;;;7.77;100.00
7662;BME280;30314;48.184;11.510;2023-04-15T11:56:16;94970.47;;;7.99;100.00
7662;BME280;30314;48.184;11.510;2023-04-15T11:58:42;94918.66;;;7.85;100.00
7662;BME280;30314;48.184;11.510;2023-04-15T12:01:11;94966.22;;;8.17;100.00
7662;BME280;30314;48.184;11.510;2023-04-15T12:03:41;94976.34;;;8.10;100.00
7662;BME280;30314;48.184;11.510;2023-04-15T12:06:23;94956.94;;;7.92;100.00
7662;BME280;30314;48.184;11.510;2023-04-15T12:14:28;94977.03;;;8.15;100.00
7662;BME280;30314;48.184;11.510;2023-04-15T12:17:01;94987.84;;;8.14;100.00
7662;BME280;30314;48.184;11.510;2023-04-15T12:19:30;94964.66;;;8.16;100.00
7662;BME280;30314;48.184;11.510;2023-04-15T12:21:59;94990.59;;;8.51;100.00
7662;BME280;30314;48.184;11.510;2023-04-15T12:24:27;94963.13;;;8.29;99.47
7662;BME280;30314;48.184;11.510;2023-04-15T12:26:56;94984.94;;;8.43;92.90
7662;BME280;30314;48.184;11.510;2023-04-15T12:29:27;94976.38;;;8.38;92.50
7662;BME280;30314;48.184;11.510;2023-04-15T12:34:33;94970.13;;;8.34;97.71
7662;BME280;30314;48.184;11.510;2023-04-15T12:37:01;94978.22;;;8.37;97.73
7662;BME280;30314;48.184;11.510;2023-04-15T12:39:30;94992.63;;;8.26;98.31
7662;BME280;30314;48.184;11.510;2023-04-15T12:41:58;95006.00;;;8.43;75.98
7662;BME280;30314;48.184;11.510;2023-04-15T12:44:28;94991.16;;;8.20;88.97
7662;BME280;30314;48.184;11.510;2023-04-15T12:46:54;95018.16;;;8.39;83.12
7662;BME280;30314;48.184;11.510;2023-04-15T12:49:22;95021.19;;;8.46;82.48
7662;BME280;30314;48.184;11.510;2023-04-15T12:51:52;95018.66;;;8.27;86.49
7662;BME280;30314;48.184;11.510;2023-04-15T12:54:19;95009.38;;;8.16;83.09
7662;BME280;30314;48.184;11.510;2023-04-15T12:56:46;95011.81;;;8.26;82.58
7662;BME280;30314;48.184;11.510;2023-04-15T12:59:13;94994.34;;;8.02;80.15
7662;BME280;30314;48.184;11.510;2023-04-15T13:01:40;95031.69;;;8.18;82.45
7662;BME280;30314;48.184;11.510;2023-04-15T13:04:07;95017.63;;;7.95;81.55
7662;BME280;30314;48.184;11.510;2023-04-15T13:06:34;95035.66;;;8.02;86.04
7662;BME280;30314;48.184;11.510;2023-04-15T13:09:02;95025.97;;;7.83;90.40
7662;BME280;30314;48.184;11.510;2023-04-15T13:11:31;95025.09;;;7.88;87.81
7662;BME280;30314;48.184;11.510;2023-04-15T13:14:00;95037.81;;;8.00;89.56
7662;BME280;30314;48.184;11.510;2023-04-15T13:16:27;95036.72;;;8.01;86.56
7662;BME280;30314;48.184;11.510;2023-04-15T13:18:54;95010.78;;;7.80;90.25
7662;BME280;30314;48.184;11.510;2023-04-15T13:21:20;95043.00;;;7.86;93.64
7662;BME280;30314;48.184;11.510;2023-04-15T13:23:48;95028.47;;;7.74;90.82
7662;BME280;30314;48.184;11.510;2023-04-15T13:26:15;95047.91;;;7.93;91.83
7662;BME280;30314;48.184;11.510;2023-04-15T13:28:42;95060.59;;;8.04;92.40
7662;BME280;30314;48.184;11.510;2023-04-15T13:31:08;95073.06;;;8.13;85.57